sensor_id;sensor_type;location;lat;lon;timestamp;temperature;humidity
19254;DHT22;9761;50.926;5.330;2022-07-24T00:01:34;21.30;99.90
19254;DHT22;9761;50.926;5.330;2022-07-24T00:04:03;21.30;99.90
19254;DHT22;9761;50.926;5.330;2022-07-24T00:06:33;21.30;99.90
19254;DHT22;9761;50.926;5.330;2022-07-24T00:09:00;21.20;99.90
19254;DHT22;9761;50.926;5.330;2022-07-24T00:11:27;21.20;99.90
19254;DHT22;9761;50.926;5.330;2022-07-24T00:13:53;21.20;99.90
19254;DHT22;9761;50.926;5.330;2022-07-24T00:16:20;21.20;99.90
19254;DHT22;9761;50.926;5.330;2022-07-24T00:18:47;21.10;99.90
19254;DHT22;9761;50.926;5.330;2022-07-24T00:21:16;21.10;99.90
19254;DHT22;9761;50.926;5.330;2022-07-24T00:23:43;21.00;99.90
19254;DHT22;9761;50.926;5.330;2022-07-24T00:26:11;21.00;99.90
19254;DHT22;9761;50.926;5.330;2022-07-24T00:28:38;21.00;99.90
19254;DHT22;9761;50.926;5.330;2022-07-24T00:31:06;20.90;99.90
19254;DHT22;9761;50.926;5.330;2022-07-24T00:33:33;21.00;99.90
19254;DHT22;9761;50.926;5.330;2022-07-24T00:36:16;21.00;99.90
19254;DHT22;9761;50.926;5.330;2022-07-24T00:38:43;21.10;99.90
19254;DHT22;9761;50.926;5.330;2022-07-24T00:41:10;20.90;99.90
19254;DHT22;9761;50.926;5.330;2022-07-24T00:43:58;20.80;99.90
19254;DHT22;9761;50.926;5.330;2022-07-24T00:46:26;20.80;99.90
19254;DHT22;9761;50.926;5.330;2022-07-24T00:48:58;20.40;99.90
19254;DHT22;9761;50.926;5.330;2022-07-24T00:51:26;20.20;99.90
19254;DHT22;9761;50.926;5.330;2022-07-24T00:53:53;20.00;99.90
19254;DHT22;9761;50.926;5.330;2022-07-24T00:56:20;19.70;99.90
19254;DHT22;9761;50.926;5.330;2022-07-24T00:58:47;19.70;99.90
19254;DHT22;9761;50.926;5.330;2022-07-24T01:01:15;20.00;99.90
19254;DHT22;9761;50.926;5.330;2022-07-24T01:03:44;19.90;99.90
19254;DHT22;9761;50.926;5.330;2022-07-24T01:06:11;20.00;99.90
19254;DHT22;9761;50.926;5.330;2022-07-24T01:08:39;19.70;99.90
19254;DHT22;9761;50.926;5.330;2022-07-24T01:11:08;19.60;99.90
19254;DHT22;9761;50.926;5.330;2022-07-24T01:13:35;19.70;99.90
19254;DHT22;9761;50.926;5.330;2022-07-24T01:16:02;19.90;99.90
19254;DHT22;9761;50.926;5.330;2022-07-24T01:18:29;20.00;99.90
19254;DHT22;9761;50.926;5.330;2022-07-24T01:20:57;20.00;99.90
19254;DHT22;9761;50.926;5.330;2022-07-24T01:23:24;19.90;99.90
19254;DHT22;9761;50.926;5.330;2022-07-24T01:25:51;19.80;99.90
19254;DHT22;9761;50.926;5.330;2022-07-24T01:28:18;19.80;99.90
19254;DHT22;9761;50.926;5.330;2022-07-24T01:30:48;19.90;99.90
19254;DHT22;9761;50.926;5.330;2022-07-24T01:33:15;19.70;99.90
19254;DHT22;9761;50.926;5.330;2022-07-24T01:38:10;19.70;99.90
19254;DHT22;9761;50.926;5.330;2022-07-24T01:40:38;19.60;99.90
19254;DHT22;9761;50.926;5.330;2022-07-24T01:43:05;19.50;99.90
19254;DHT22;9761;50.926;5.330;2022-07-24T01:45:32;19.50;99.90
19254;DHT22;9761;50.926;5.330;2022-07-24T01:47:59;19.60;99.90
19254;DHT22;9761;50.926;5.330;2022-07-24T01:50:25;19.50;99.90
19254;DHT22;9761;50.926;5.330;2022-07-24T01:52:52;19.40;99.90
19254;DHT22;9761;50.926;5.330;2022-07-24T01:55:20;19.40;99.90
19254;DHT22;9761;50.926;5.330;2022-07-24T01:57:48;19.40;99.90
19254;DHT22;9761;50.926;5.330;2022-07-24T02:00:15;19.20;99.90
19254;DHT22;9761;50.926;5.330;2022-07-24T02:02:43;19.20;99.90
19254;DHT22;9761;50.926;5.330;2022-07-24T02:05:10;19.10;99.90
19254;DHT22;9761;50.926;5.330;2022-07-24T02:07:38;19.10;99.90
19254;DHT22;9761;50.926;5.330;2022-07-24T02:10:07;19.20;99.90
19254;DHT22;9761;50.926;5.330;2022-07-24T02:12:41;19.00;99.90
19254;DHT22;9761;50.926;5.330;2022-07-24T02:15:08;18.90;99.90
19254;DHT22;9761;50.926;5.330;2022-07-24T02:17:37;18.90;99.90
19254;DHT22;9761;50.926;5.330;2022-07-24T02:20:04;18.80;99.90
19254;DHT22;9761;50.926;5.330;2022-07-24T02:22:31;18.70;99.90
19254;DHT22;9761;50.926;5.330;2022-07-24T02:24:59;18.70;99.90
19254;DHT22;9761;50.926;5.330;2022-07-24T02:27:27;18.60;99.90
19254;DHT22;9761;50.926;5.330;2022-07-24T02:29:55;18.50;99.90
19254;DHT22;9761;50.926;5.330;2022-07-24T02:32:22;18.60;99.90
19254;DHT22;9761;50.926;5.330;2022-07-24T02:34:50;18.70;99.90
19254;DHT22;9761;50.926;5.330;2022-07-24T02:37:17;18.50;99.90
19254;DHT22;9761;50.926;5.330;2022-07-24T02:39:44;18.50;99.90
19254;DHT22;9761;50.926;5.330;2022-07-24T02:42:10;18.40;99.90
19254;DHT22;9761;50.926;5.330;2022-07-24T02:44:37;18.30;99.90
19254;DHT22;9761;50.926;5.330;2022-07-24T02:47:05;18.40;99.90
19254;DHT22;9761;50.926;5.330;2022-07-24T02:49:32;18.40;99.90
19254;DHT22;9761;50.926;5.330;2022-07-24T02:52:01;18.40;99.90
19254;DHT22;9761;50.926;5.330;2022-07-24T02:54:28;18.40;99.90
19254;DHT22;9761;50.926;5.330;2022-07-24T02:56:55;18.30;99.90
19254;DHT22;9761;50.926;5.330;2022-07-24T02:59:21;18.40;99.90
19254;DHT22;9761;50.926;5.330;2022-07-24T03:01:48;18.30;99.90
19254;DHT22;9761;50.926;5.330;2022-07-24T03:04:20;18.20;99.90
19254;DHT22;9761;50.926;5.330;2022-07-24T03:06:50;18.20;99.90
19254;DHT22;9761;50.926;5.330;2022-07-24T03:09:16;18.20;99.90
19254;DHT22;9761;50.926;5.330;2022-07-24T03:11:43;18.10;99.90
19254;DHT22;9761;50.926;5.330;2022-07-24T03:14:12;18.20;99.90
19254;DHT22;9761;50.926;5.330;2022-07-24T03:16:39;18.40;99.90
19254;DHT22;9761;50.926;5.330;2022-07-24T03:19:07;18.40;99.90
19254;DHT22;9761;50.926;5.330;2022-07-24T03:21:36;18.40;99.90
19254;DHT22;9761;50.926;5.330;2022-07-24T03:24:05;18.50;99.90
19254;DHT22;9761;50.926;5.330;2022-07-24T03:26:32;18.30;99.90
19254;DHT22;9761;50.926;5.330;2022-07-24T03:29:01;18.30;99.90
19254;DHT22;9761;50.926;5.330;2022-07-24T03:31:30;18.20;99.90
19254;DHT22;9761;50.926;5.330;2022-07-24T03:34:00;18.10;99.90
19254;DHT22;9761;50.926;5.330;2022-07-24T03:36:26;18.10;99.90
19254;DHT22;9761;50.926;5.330;2022-07-24T03:38:55;18.10;99.90
19254;DHT22;9761;50.926;5.330;2022-07-24T03:41:22;18.10;99.90
19254;DHT22;9761;50.926;5.330;2022-07-24T03:43:49;18.20;99.90
19254;DHT22;9761;50.926;5.330;2022-07-24T03:46:29;18.10;99.90
19254;DHT22;9761;50.926;5.330;2022-07-24T03:48:56;18.00;99.90
19254;DHT22;9761;50.926;5.330;2022-07-24T03:51:23;18.00;99.90
19254;DHT22;9761;50.926;5.330;2022-07-24T03:53:50;18.10;99.90
19254;DHT22;9761;50.926;5.330;2022-07-24T03:56:18;18.30;99.90
19254;DHT22;9761;50.926;5.330;2022-07-24T03:58:45;18.20;99.90
19254;DHT22;9761;50.926;5.330;2022-07-24T04:01:12;18.20;99.90
19254;DHT22;9761;50.926;5.330;2022-07-24T04:03:39;18.10;99.90
19254;DHT22;9761;50.926;5.330;2022-07-24T04:06:06;17.90;99.90
19254;DHT22;9761;50.926;5.330;2022-07-24T04:08:32;18.00;99.90
19254;DHT22;9761;50.926;5.330;2022-07-24T04:10:59;18.00;99.90
19254;DHT22;9761;50.926;5.330;2022-07-24T04:13:29;18.00;99.90
19254;DHT22;9761;50.926;5.330;2022-07-24T04:15:56;18.00;99.90
19254;DHT22;9761;50.926;5.330;2022-07-24T04:18:28;17.90;99.90
19254;DHT22;9761;50.926;5.330;2022-07-24T04:20:58;18.00;99.90
19254;DHT22;9761;50.926;5.330;2022-07-24T04:23:25;17.90;99.90
19254;DHT22;9761;50.926;5.330;2022-07-24T04:25:54;17.90;99.90
19254;DHT22;9761;50.926;5.330;2022-07-24T04:28:21;17.80;99.90
19254;DHT22;9761;50.926;5.330;2022-07-24T04:30:49;17.90;99.90
19254;DHT22;9761;50.926;5.330;2022-07-24T04:33:20;18.00;99.90
19254;DHT22;9761;50.926;5.330;2022-07-24T04:35:47;18.10;99.90
19254;DHT22;9761;50.926;5.330;2022-07-24T04:38:15;18.20;99.90
19254;DHT22;9761;50.926;5.330;2022-07-24T04:40:42;18.30;99.90
19254;DHT22;9761;50.926;5.330;2022-07-24T04:43:09;18.30;99.90
19254;DHT22;9761;50.926;5.330;2022-07-24T04:45:36;18.30;99.90
19254;DHT22;9761;50.926;5.330;2022-07-24T04:48:05;18.10;99.90
19254;DHT22;9761;50.926;5.330;2022-07-24T04:50:32;18.00;99.90
19254;DHT22;9761;50.926;5.330;2022-07-24T04:53:01;18.10;99.90
19254;DHT22;9761;50.926;5.330;2022-07-24T04:55:28;18.00;99.90
19254;DHT22;9761;50.926;5.330;2022-07-24T04:57:54;18.00;99.90
19254;DHT22;9761;50.926;5.330;2022-07-24T05:00:22;18.00;99.90
19254;DHT22;9761;50.926;5.330;2022-07-24T05:02:49;18.00;99.90
19254;DHT22;9761;50.926;5.330;2022-07-24T05:05:17;18.00;99.90
19254;DHT22;9761;50.926;5.330;2022-07-24T05:07:47;18.00;99.90
19254;DHT22;9761;50.926;5.330;2022-07-24T05:10:16;18.00;99.90
19254;DHT22;9761;50.926;5.330;2022-07-24T05:12:44;18.10;99.90
19254;DHT22;9761;50.926;5.330;2022-07-24T05:15:11;18.30;99.90
19254;DHT22;9761;50.926;5.330;2022-07-24T05:17:38;18.30;99.90
19254;DHT22;9761;50.926;5.330;2022-07-24T05:20:05;18.40;99.90
19254;DHT22;9761;50.926;5.330;2022-07-24T05:22:34;18.40;99.90
19254;DHT22;9761;50.926;5.330;2022-07-24T05:25:01;18.50;99.90
19254;DHT22;9761;50.926;5.330;2022-07-24T05:27:27;18.40;99.90
19254;DHT22;9761;50.926;5.330;2022-07-24T05:29:55;18.50;99.90
19254;DHT22;9761;50.926;5.330;2022-07-24T05:32:22;18.70;99.90
19254;DHT22;9761;50.926;5.330;2022-07-24T05:34:49;18.90;99.90
19254;DHT22;9761;50.926;5.330;2022-07-24T05:37:16;18.80;99.90
19254;DHT22;9761;50.926;5.330;2022-07-24T05:39:44;18.70;99.90
19254;DHT22;9761;50.926;5.330;2022-07-24T05:42:13;18.80;99.90
19254;DHT22;9761;50.926;5.330;2022-07-24T05:44:43;18.80;99.90
19254;DHT22;9761;50.926;5.330;2022-07-24T05:47:09;18.90;99.90
19254;DHT22;9761;50.926;5.330;2022-07-24T05:49:44;19.10;99.90
19254;DHT22;9761;50.926;5.330;2022-07-24T05:52:20;19.20;99.90
19254;DHT22;9761;50.926;5.330;2022-07-24T05:54:56;19.40;99.90
19254;DHT22;9761;50.926;5.330;2022-07-24T05:57:23;19.60;99.90
19254;DHT22;9761;50.926;5.330;2022-07-24T05:59:50;20.10;99.90
19254;DHT22;9761;50.926;5.330;2022-07-24T06:02:17;19.90;99.90
19254;DHT22;9761;50.926;5.330;2022-07-24T06:04:43;20.00;99.90
19254;DHT22;9761;50.926;5.330;2022-07-24T06:07:10;20.10;99.90
19254;DHT22;9761;50.926;5.330;2022-07-24T06:09:37;20.10;99.90
19254;DHT22;9761;50.926;5.330;2022-07-24T06:12:15;20.30;99.90
19254;DHT22;9761;50.926;5.330;2022-07-24T06:14:42;19.90;99.90
19254;DHT22;9761;50.926;5.330;2022-07-24T06:17:10;19.70;99.90
19254;DHT22;9761;50.926;5.330;2022-07-24T06:19:37;19.70;99.90
19254;DHT22;9761;50.926;5.330;2022-07-24T06:22:04;19.60;99.90
19254;DHT22;9761;50.926;5.330;2022-07-24T06:24:31;19.70;99.90
19254;DHT22;9761;50.926;5.330;2022-07-24T06:26:57;19.70;99.90
19254;DHT22;9761;50.926;5.330;2022-07-24T06:29:26;19.70;99.90
19254;DHT22;9761;50.926;5.330;2022-07-24T06:31:53;19.70;99.90
19254;DHT22;9761;50.926;5.330;2022-07-24T06:34:20;19.60;99.90
19254;DHT22;9761;50.926;5.330;2022-07-24T06:36:49;19.90;99.90
19254;DHT22;9761;50.926;5.330;2022-07-24T06:39:16;20.40;99.90
19254;DHT22;9761;50.926;5.330;2022-07-24T06:41:42;20.50;99.90
19254;DHT22;9761;50.926;5.330;2022-07-24T06:44:09;20.50;99.90
19254;DHT22;9761;50.926;5.330;2022-07-24T06:46:38;20.20;99.90
19254;DHT22;9761;50.926;5.330;2022-07-24T06:49:04;20.30;99.90
19254;DHT22;9761;50.926;5.330;2022-07-24T06:51:40;20.20;99.90
19254;DHT22;9761;50.926;5.330;2022-07-24T06:54:10;20.30;99.90
19254;DHT22;9761;50.926;5.330;2022-07-24T06:56:58;20.40;99.90
19254;DHT22;9761;50.926;5.330;2022-07-24T06:59:26;20.30;99.90
19254;DHT22;9761;50.926;5.330;2022-07-24T07:01:57;20.60;99.90
19254;DHT22;9761;50.926;5.330;2022-07-24T07:04:27;21.00;99.90
19254;DHT22;9761;50.926;5.330;2022-07-24T07:06:54;21.30;99.90
19254;DHT22;9761;50.926;5.330;2022-07-24T07:09:20;21.00;99.90
19254;DHT22;9761;50.926;5.330;2022-07-24T07:11:47;21.10;99.90
19254;DHT22;9761;50.926;5.330;2022-07-24T07:14:14;21.20;99.90
19254;DHT22;9761;50.926;5.330;2022-07-24T07:16:41;21.60;99.90
19254;DHT22;9761;50.926;5.330;2022-07-24T07:19:09;21.40;99.90
19254;DHT22;9761;50.926;5.330;2022-07-24T07:21:38;21.40;99.90
19254;DHT22;9761;50.926;5.330;2022-07-24T07:24:08;21.60;99.90
19254;DHT22;9761;50.926;5.330;2022-07-24T07:26:35;21.80;99.90
19254;DHT22;9761;50.926;5.330;2022-07-24T07:29:01;22.20;99.90
19254;DHT22;9761;50.926;5.330;2022-07-24T07:31:28;22.30;99.90
19254;DHT22;9761;50.926;5.330;2022-07-24T07:33:55;22.20;99.90
19254;DHT22;9761;50.926;5.330;2022-07-24T07:36:24;22.50;99.90
19254;DHT22;9761;50.926;5.330;2022-07-24T07:38:51;22.70;99.90
19254;DHT22;9761;50.926;5.330;2022-07-24T07:41:19;22.30;99.90
19254;DHT22;9761;50.926;5.330;2022-07-24T07:43:46;22.20;99.90
19254;DHT22;9761;50.926;5.330;2022-07-24T07:46:15;22.30;99.90
19254;DHT22;9761;50.926;5.330;2022-07-24T07:48:52;22.70;99.90
19254;DHT22;9761;50.926;5.330;2022-07-24T07:51:25;23.00;99.90
19254;DHT22;9761;50.926;5.330;2022-07-24T07:53:52;22.90;99.90
19254;DHT22;9761;50.926;5.330;2022-07-24T07:56:21;23.00;99.90
19254;DHT22;9761;50.926;5.330;2022-07-24T07:58:51;22.70;99.90
19254;DHT22;9761;50.926;5.330;2022-07-24T08:01:28;22.80;99.90
19254;DHT22;9761;50.926;5.330;2022-07-24T08:03:55;22.70;99.90
19254;DHT22;9761;50.926;5.330;2022-07-24T08:06:22;22.70;99.90
19254;DHT22;9761;50.926;5.330;2022-07-24T08:08:50;22.90;99.90
19254;DHT22;9761;50.926;5.330;2022-07-24T08:11:17;23.00;99.90
19254;DHT22;9761;50.926;5.330;2022-07-24T08:13:44;23.20;99.90
19254;DHT22;9761;50.926;5.330;2022-07-24T08:16:10;23.40;99.90
19254;DHT22;9761;50.926;5.330;2022-07-24T08:18:37;23.20;99.90
19254;DHT22;9761;50.926;5.330;2022-07-24T08:21:06;23.00;99.90
19254;DHT22;9761;50.926;5.330;2022-07-24T08:23:34;23.30;99.90
19254;DHT22;9761;50.926;5.330;2022-07-24T08:26:04;23.30;99.90
19254;DHT22;9761;50.926;5.330;2022-07-24T08:28:31;23.40;99.90
19254;DHT22;9761;50.926;5.330;2022-07-24T08:30:58;23.90;99.90
19254;DHT22;9761;50.926;5.330;2022-07-24T08:33:25;23.80;99.90
19254;DHT22;9761;50.926;5.330;2022-07-24T08:36:00;24.00;99.90
19254;DHT22;9761;50.926;5.330;2022-07-24T08:38:27;24.00;99.90
19254;DHT22;9761;50.926;5.330;2022-07-24T08:41:03;23.80;99.90
19254;DHT22;9761;50.926;5.330;2022-07-24T08:43:32;23.70;99.90
19254;DHT22;9761;50.926;5.330;2022-07-24T08:46:02;23.90;99.90
19254;DHT22;9761;50.926;5.330;2022-07-24T08:48:29;24.20;99.90
19254;DHT22;9761;50.926;5.330;2022-07-24T08:50:58;24.50;99.90
19254;DHT22;9761;50.926;5.330;2022-07-24T08:53:25;24.80;99.90
19254;DHT22;9761;50.926;5.330;2022-07-24T08:55:51;24.80;99.90
19254;DHT22;9761;50.926;5.330;2022-07-24T08:58:24;24.50;99.90
19254;DHT22;9761;50.926;5.330;2022-07-24T09:00:55;24.70;99.90
19254;DHT22;9761;50.926;5.330;2022-07-24T09:03:27;24.60;99.90
19254;DHT22;9761;50.926;5.330;2022-07-24T09:05:55;24.60;99.90
19254;DHT22;9761;50.926;5.330;2022-07-24T09:08:25;24.90;99.90
19254;DHT22;9761;50.926;5.330;2022-07-24T09:10:55;25.00;99.90
19254;DHT22;9761;50.926;5.330;2022-07-24T09:13:24;24.80;99.90
19254;DHT22;9761;50.926;5.330;2022-07-24T09:15:51;24.40;99.90
19254;DHT22;9761;50.926;5.330;2022-07-24T09:18:24;24.30;99.90
19254;DHT22;9761;50.926;5.330;2022-07-24T09:20:51;24.40;99.90
19254;DHT22;9761;50.926;5.330;2022-07-24T09:23:18;24.50;99.90
19254;DHT22;9761;50.926;5.330;2022-07-24T09:25:48;24.70;99.90
19254;DHT22;9761;50.926;5.330;2022-07-24T09:28:16;24.60;99.90
19254;DHT22;9761;50.926;5.330;2022-07-24T09:30:44;24.70;99.90
19254;DHT22;9761;50.926;5.330;2022-07-24T09:33:14;24.70;99.90
19254;DHT22;9761;50.926;5.330;2022-07-24T09:35:42;25.10;99.90
19254;DHT22;9761;50.926;5.330;2022-07-24T09:38:14;25.10;99.90
19254;DHT22;9761;50.926;5.330;2022-07-24T09:40:41;25.10;99.90
19254;DHT22;9761;50.926;5.330;2022-07-24T09:43:18;24.90;99.90
19254;DHT22;9761;50.926;5.330;2022-07-24T09:46:06;24.90;99.90
19254;DHT22;9761;50.926;5.330;2022-07-24T09:48:34;25.20;99.90
19254;DHT22;9761;50.926;5.330;2022-07-24T09:51:01;25.30;99.90
19254;DHT22;9761;50.926;5.330;2022-07-24T09:53:29;25.70;99.90
19254;DHT22;9761;50.926;5.330;2022-07-24T09:56:02;25.50;99.90
19254;DHT22;9761;50.926;5.330;2022-07-24T09:58:33;25.80;99.90
19254;DHT22;9761;50.926;5.330;2022-07-24T10:01:07;25.50;99.90
19254;DHT22;9761;50.926;5.330;2022-07-24T10:03:44;25.50;99.90
19254;DHT22;9761;50.926;5.330;2022-07-24T10:06:21;25.70;99.90
19254;DHT22;9761;50.926;5.330;2022-07-24T10:08:52;25.40;99.90
19254;DHT22;9761;50.926;5.330;2022-07-24T10:11:21;25.60;99.90
19254;DHT22;9761;50.926;5.330;2022-07-24T10:13:48;25.70;99.90
19254;DHT22;9761;50.926;5.330;2022-07-24T10:16:28;25.90;99.90
19254;DHT22;9761;50.926;5.330;2022-07-24T10:19:03;26.00;99.90
19254;DHT22;9761;50.926;5.330;2022-07-24T10:21:47;26.30;99.90
19254;DHT22;9761;50.926;5.330;2022-07-24T10:27:22;26.20;99.90
19254;DHT22;9761;50.926;5.330;2022-07-24T10:29:49;26.10;99.90
19254;DHT22;9761;50.926;5.330;2022-07-24T10:32:19;26.30;99.90
19254;DHT22;9761;50.926;5.330;2022-07-24T10:34:52;26.00;99.90
19254;DHT22;9761;50.926;5.330;2022-07-24T10:37:23;26.20;99.90
19254;DHT22;9761;50.926;5.330;2022-07-24T10:39:55;26.30;99.90
19254;DHT22;9761;50.926;5.330;2022-07-24T10:42:26;26.70;99.90
19254;DHT22;9761;50.926;5.330;2022-07-24T10:45:12;27.00;99.90
19254;DHT22;9761;50.926;5.330;2022-07-24T10:47:41;27.10;99.90
19254;DHT22;9761;50.926;5.330;2022-07-24T10:50:11;27.30;99.90
19254;DHT22;9761;50.926;5.330;2022-07-24T10:52:40;27.10;99.90
19254;DHT22;9761;50.926;5.330;2022-07-24T10:55:20;26.90;99.90
19254;DHT22;9761;50.926;5.330;2022-07-24T10:57:55;26.70;99.90
19254;DHT22;9761;50.926;5.330;2022-07-24T11:00:24;27.20;99.90
19254;DHT22;9761;50.926;5.330;2022-07-24T11:03:00;27.10;99.90
19254;DHT22;9761;50.926;5.330;2022-07-24T11:05:31;27.00;99.90
19254;DHT22;9761;50.926;5.330;2022-07-24T11:10:57;27.30;99.90
19254;DHT22;9761;50.926;5.330;2022-07-24T11:13:41;27.40;99.90
19254;DHT22;9761;50.926;5.330;2022-07-24T11:16:18;27.70;99.90
19254;DHT22;9761;50.926;5.330;2022-07-24T11:21:28;27.90;99.90
19254;DHT22;9761;50.926;5.330;2022-07-24T11:24:13;27.20;99.90
19254;DHT22;9761;50.926;5.330;2022-07-24T11:26:42;27.10;99.90
19254;DHT22;9761;50.926;5.330;2022-07-24T11:29:12;27.40;99.90
19254;DHT22;9761;50.926;5.330;2022-07-24T11:31:39;27.70;99.90
19254;DHT22;9761;50.926;5.330;2022-07-24T11:34:08;27.70;99.90
19254;DHT22;9761;50.926;5.330;2022-07-24T11:36:42;27.50;99.90
19254;DHT22;9761;50.926;5.330;2022-07-24T11:41:44;27.90;99.90
19254;DHT22;9761;50.926;5.330;2022-07-24T11:44:11;27.80;99.90
19254;DHT22;9761;50.926;5.330;2022-07-24T11:46:38;27.20;99.90
19254;DHT22;9761;50.926;5.330;2022-07-24T11:49:06;27.30;99.90
19254;DHT22;9761;50.926;5.330;2022-07-24T11:51:48;27.50;99.90
19254;DHT22;9761;50.926;5.330;2022-07-24T11:54:20;28.00;99.90
19254;DHT22;9761;50.926;5.330;2022-07-24T11:56:47;28.10;99.90
19254;DHT22;9761;50.926;5.330;2022-07-24T11:59:25;28.10;99.90
19254;DHT22;9761;50.926;5.330;2022-07-24T12:01:54;28.20;99.90
19254;DHT22;9761;50.926;5.330;2022-07-24T12:04:21;28.60;99.90
19254;DHT22;9761;50.926;5.330;2022-07-24T12:06:49;28.90;99.90
19254;DHT22;9761;50.926;5.330;2022-07-24T12:09:16;29.20;99.90
19254;DHT22;9761;50.926;5.330;2022-07-24T12:11:43;28.50;99.90
19254;DHT22;9761;50.926;5.330;2022-07-24T12:14:16;28.10;99.90
19254;DHT22;9761;50.926;5.330;2022-07-24T12:16:43;28.00;99.90
19254;DHT22;9761;50.926;5.330;2022-07-24T12:19:11;28.00;99.90
19254;DHT22;9761;50.926;5.330;2022-07-24T12:21:41;28.30;99.90
19254;DHT22;9761;50.926;5.330;2022-07-24T12:24:09;28.60;99.90
19254;DHT22;9761;50.926;5.330;2022-07-24T12:26:49;28.40;99.90
19254;DHT22;9761;50.926;5.330;2022-07-24T12:29:16;28.30;99.90
19254;DHT22;9761;50.926;5.330;2022-07-24T12:31:43;28.70;99.90
19254;DHT22;9761;50.926;5.330;2022-07-24T12:34:09;28.80;99.90
19254;DHT22;9761;50.926;5.330;2022-07-24T12:36:37;28.80;99.90
19254;DHT22;9761;50.926;5.330;2022-07-24T12:39:06;29.10;99.90
19254;DHT22;9761;50.926;5.330;2022-07-24T12:41:42;29.20;99.90
19254;DHT22;9761;50.926;5.330;2022-07-24T12:44:10;29.20;99.90
19254;DHT22;9761;50.926;5.330;2022-07-24T12:46:37;29.30;99.90
19254;DHT22;9761;50.926;5.330;2022-07-24T12:49:07;29.40;99.90
19254;DHT22;9761;50.926;5.330;2022-07-24T12:51:47;29.80;99.90
19254;DHT22;9761;50.926;5.330;2022-07-24T12:54:15;29.50;99.90
19254;DHT22;9761;50.926;5.330;2022-07-24T12:56:45;29.80;99.90
19254;DHT22;9761;50.926;5.330;2022-07-24T12:59:21;30.00;99.90
19254;DHT22;9761;50.926;5.330;2022-07-24T13:01:50;30.20;99.90
19254;DHT22;9761;50.926;5.330;2022-07-24T13:04:18;30.20;99.90
19254;DHT22;9761;50.926;5.330;2022-07-24T13:06:48;30.00;99.90
19254;DHT22;9761;50.926;5.330;2022-07-24T13:09:19;30.30;99.90
19254;DHT22;9761;50.926;5.330;2022-07-24T13:11:48;30.20;99.90
19254;DHT22;9761;50.926;5.330;2022-07-24T13:14:16;30.40;99.90
19254;DHT22;9761;50.926;5.330;2022-07-24T13:16:44;29.90;99.90
19254;DHT22;9761;50.926;5.330;2022-07-24T13:19:16;29.70;99.90
19254;DHT22;9761;50.926;5.330;2022-07-24T13:21:43;29.70;99.90
19254;DHT22;9761;50.926;5.330;2022-07-24T13:24:13;29.60;99.90
19254;DHT22;9761;50.926;5.330;2022-07-24T13:26:41;29.60;99.90
19254;DHT22;9761;50.926;5.330;2022-07-24T13:29:10;29.60;99.90
19254;DHT22;9761;50.926;5.330;2022-07-24T13:31:37;29.70;99.90
19254;DHT22;9761;50.926;5.330;2022-07-24T13:34:04;30.40;99.90
19254;DHT22;9761;50.926;5.330;2022-07-24T13:36:32;30.80;99.90
19254;DHT22;9761;50.926;5.330;2022-07-24T13:39:03;30.90;99.90
19254;DHT22;9761;50.926;5.330;2022-07-24T13:41:30;30.90;99.90
19254;DHT22;9761;50.926;5.330;2022-07-24T13:44:00;30.50;99.90
19254;DHT22;9761;50.926;5.330;2022-07-24T13:46:28;30.80;99.90
19254;DHT22;9761;50.926;5.330;2022-07-24T13:48:56;30.40;99.90
19254;DHT22;9761;50.926;5.330;2022-07-24T13:51:43;30.50;99.90
19254;DHT22;9761;50.926;5.330;2022-07-24T13:54:31;30.50;99.90
19254;DHT22;9761;50.926;5.330;2022-07-24T13:56:58;30.60;99.90
19254;DHT22;9761;50.926;5.330;2022-07-24T13:59:27;30.80;99.90
19254;DHT22;9761;50.926;5.330;2022-07-24T14:01:55;31.40;99.90
19254;DHT22;9761;50.926;5.330;2022-07-24T14:04:26;31.70;99.90
19254;DHT22;9761;50.926;5.330;2022-07-24T14:06:55;31.90;99.90
19254;DHT22;9761;50.926;5.330;2022-07-24T14:09:25;31.70;99.90
19254;DHT22;9761;50.926;5.330;2022-07-24T14:11:54;31.30;99.90
19254;DHT22;9761;50.926;5.330;2022-07-24T14:14:21;31.30;99.90
19254;DHT22;9761;50.926;5.330;2022-07-24T14:16:48;31.70;99.90
19254;DHT22;9761;50.926;5.330;2022-07-24T14:19:20;31.70;99.90
19254;DHT22;9761;50.926;5.330;2022-07-24T14:21:49;31.40;99.90
19254;DHT22;9761;50.926;5.330;2022-07-24T14:24:16;32.00;99.90
19254;DHT22;9761;50.926;5.330;2022-07-24T14:26:43;32.20;99.90
19254;DHT22;9761;50.926;5.330;2022-07-24T14:29:10;32.50;99.90
19254;DHT22;9761;50.926;5.330;2022-07-24T14:31:45;32.30;99.90
19254;DHT22;9761;50.926;5.330;2022-07-24T14:34:12;32.50;99.90
19254;DHT22;9761;50.926;5.330;2022-07-24T14:36:40;32.00;99.90
19254;DHT22;9761;50.926;5.330;2022-07-24T14:39:07;31.80;99.90
19254;DHT22;9761;50.926;5.330;2022-07-24T14:41:34;32.00;99.90
19254;DHT22;9761;50.926;5.330;2022-07-24T14:44:01;32.80;99.90
19254;DHT22;9761;50.926;5.330;2022-07-24T14:46:28;33.70;99.90
19254;DHT22;9761;50.926;5.330;2022-07-24T14:48:55;34.30;99.90
19254;DHT22;9761;50.926;5.330;2022-07-24T14:51:22;34.60;99.90
19254;DHT22;9761;50.926;5.330;2022-07-24T14:53:50;34.00;99.90
19254;DHT22;9761;50.926;5.330;2022-07-24T14:56:17;33.90;99.90
19254;DHT22;9761;50.926;5.330;2022-07-24T14:58:44;35.00;99.90
19254;DHT22;9761;50.926;5.330;2022-07-24T15:01:10;34.20;99.90
19254;DHT22;9761;50.926;5.330;2022-07-24T15:03:37;34.50;99.90
19254;DHT22;9761;50.926;5.330;2022-07-24T15:06:07;35.50;99.90
19254;DHT22;9761;50.926;5.330;2022-07-24T15:08:34;35.50;99.90
19254;DHT22;9761;50.926;5.330;2022-07-24T15:11:02;34.70;99.90
19254;DHT22;9761;50.926;5.330;2022-07-24T15:13:31;34.80;99.90
19254;DHT22;9761;50.926;5.330;2022-07-24T15:15:57;34.20;99.90
19254;DHT22;9761;50.926;5.330;2022-07-24T15:18:24;33.50;99.90
19254;DHT22;9761;50.926;5.330;2022-07-24T15:20:51;34.50;99.90
19254;DHT22;9761;50.926;5.330;2022-07-24T15:23:19;34.20;99.90
19254;DHT22;9761;50.926;5.330;2022-07-24T15:25:46;34.60;99.90
19254;DHT22;9761;50.926;5.330;2022-07-24T15:28:15;35.50;99.90
19254;DHT22;9761;50.926;5.330;2022-07-24T15:30:41;35.70;99.90
19254;DHT22;9761;50.926;5.330;2022-07-24T15:33:08;36.00;99.90
19254;DHT22;9761;50.926;5.330;2022-07-24T15:35:35;35.40;99.90
19254;DHT22;9761;50.926;5.330;2022-07-24T15:38:02;35.00;99.90
19254;DHT22;9761;50.926;5.330;2022-07-24T15:40:28;34.60;99.90
19254;DHT22;9761;50.926;5.330;2022-07-24T15:42:56;35.50;99.90
19254;DHT22;9761;50.926;5.330;2022-07-24T15:45:24;37.00;99.90
19254;DHT22;9761;50.926;5.330;2022-07-24T15:47:51;36.50;99.90
19254;DHT22;9761;50.926;5.330;2022-07-24T15:50:18;35.90;99.90
19254;DHT22;9761;50.926;5.330;2022-07-24T15:52:45;35.70;99.90
19254;DHT22;9761;50.926;5.330;2022-07-24T15:55:12;36.10;99.90
19254;DHT22;9761;50.926;5.330;2022-07-24T15:57:43;35.60;99.70
19254;DHT22;9761;50.926;5.330;2022-07-24T16:00:10;35.80;99.90
19254;DHT22;9761;50.926;5.330;2022-07-24T16:02:44;36.40;99.60
19254;DHT22;9761;50.926;5.330;2022-07-24T16:05:13;36.10;99.50
19254;DHT22;9761;50.926;5.330;2022-07-24T16:07:48;35.10;99.90
19254;DHT22;9761;50.926;5.330;2022-07-24T16:10:18;35.10;99.90